createdAt,value
2019-02-02T00:02:33.027Z,60.50
2019-02-02T00:05:13.859Z,61.60
2019-02-02T00:07:54.231Z,61.00
2019-02-02T00:10:35.208Z,61.30
2019-02-02T00:13:15.523Z,61.50
2019-02-02T00:15:56.100Z,62.20
2019-02-02T00:18:36.718Z,61.50
2019-02-02T00:21:17.651Z,61.30
2019-02-02T00:23:57.987Z,61.20
2019-02-02T00:26:38.396Z,61.40
2019-02-02T00:29:19.252Z,61.00
2019-02-02T00:31:59.510Z,61.30
2019-02-02T00:34:40.407Z,61.30
2019-02-02T00:37:21.085Z,61.60
2019-02-02T00:40:01.672Z,60.30
2019-02-02T00:42:42.472Z,62.00
2019-02-02T00:45:22.836Z,61.50
2019-02-02T00:48:03.708Z,61.90
2019-02-02T00:50:44.456Z,62.20
2019-02-02T00:53:25.141Z,62.20
2019-02-02T00:56:06.014Z,61.40
2019-02-02T00:58:46.765Z,61.60
2019-02-02T01:01:27.385Z,61.60
2019-02-02T01:04:08.027Z,62.30
2019-02-02T01:06:48.972Z,61.90
2019-02-02T01:09:29.656Z,62.60
2019-02-02T01:11:58.179Z,61.90
2019-02-02T01:14:45.956Z,62.70
2019-02-02T01:17:33.744Z,62.60
2019-02-02T01:20:21.591Z,61.70
2019-02-02T01:23:09.463Z,62.00
2019-02-02T01:25:57.325Z,62.40
2019-02-02T01:28:45.117Z,61.60
2019-02-02T01:31:32.888Z,61.80
2019-02-02T01:34:20.685Z,62.30
2019-02-02T01:37:08.449Z,61.50
2019-02-02T01:39:56.323Z,61.50
2019-02-02T01:42:44.200Z,61.50
2019-02-02T01:45:31.971Z,61.60
2019-02-02T01:48:19.762Z,61.40
2019-02-02T01:51:08.018Z,62.30
2019-02-02T01:53:55.812Z,61.60
2019-02-02T01:56:36.240Z,61.30
2019-02-02T01:59:17.132Z,61.90
2019-02-02T02:01:58.412Z,60.50
2019-02-02T02:04:42.627Z,61.30
2019-02-02T02:07:23.422Z,61.70
2019-02-02T02:10:04.288Z,61.60
2019-02-02T02:12:32.733Z,61.70
2019-02-02T02:15:20.672Z,62.40
2019-02-02T02:18:08.473Z,62.10
2019-02-02T02:20:56.260Z,62.20
2019-02-02T02:23:24.719Z,62.30
2019-02-02T02:26:12.495Z,62.60
2019-02-02T02:29:00.300Z,62.30
2019-02-02T02:31:48.063Z,61.30
2019-02-02T02:34:35.858Z,62.40
2019-02-02T02:37:23.628Z,62.00
2019-02-02T02:40:30.749Z,62.40
2019-02-02T02:43:18.511Z,62.40
2019-02-02T02:46:06.305Z,63.40
2019-02-02T02:48:54.091Z,62.70
2019-02-02T02:51:41.869Z,63.30
2019-02-02T02:54:29.736Z,62.70
2019-02-02T02:57:12.003Z,62.50
2019-02-02T02:59:52.759Z,61.90
2019-02-02T03:05:16.505Z,61.70
2019-02-02T03:07:57.506Z,61.40
2019-02-02T03:10:38.032Z,61.40
2019-02-02T03:16:00.458Z,61.90
2019-02-02T03:18:41.286Z,61.80
2019-02-02T03:21:21.858Z,61.50
2019-02-02T03:24:02.775Z,61.80
2019-02-02T03:26:43.604Z,62.60
2019-02-02T03:29:24.836Z,62.70
2019-02-02T03:32:05.969Z,62.10
2019-02-02T03:34:46.399Z,62.00
2019-02-02T03:37:27.399Z,62.00
2019-02-02T03:40:07.883Z,62.00
2019-02-02T03:42:48.526Z,62.60
2019-02-02T03:45:29.335Z,62.30
2019-02-02T03:48:10.020Z,61.90
2019-02-02T03:50:50.354Z,62.30
2019-02-02T03:53:31.054Z,62.20
2019-02-02T03:56:11.694Z,62.00
2019-02-02T03:58:52.254Z,63.10
2019-02-02T04:01:32.562Z,62.20
2019-02-02T04:04:13.314Z,62.40
2019-02-02T04:06:53.879Z,62.70
2019-02-02T04:09:34.118Z,62.90
2019-02-02T04:12:18.137Z,62.90
2019-02-02T04:14:58.889Z,63.00
2019-02-02T04:17:39.570Z,63.20
2019-02-02T04:20:20.379Z,62.80
2019-02-02T04:23:01.116Z,62.60
2019-02-02T04:25:42.017Z,62.20
2019-02-02T04:28:22.542Z,62.60
2019-02-02T04:31:03.523Z,62.40
2019-02-02T04:33:44.402Z,62.60
2019-02-02T04:36:12.926Z,62.60
2019-02-02T04:39:00.693Z,62.90
2019-02-02T04:41:48.492Z,62.10
2019-02-02T04:44:36.268Z,62.70
2019-02-02T04:47:24.147Z,62.80
2019-02-02T04:50:32.806Z,62.40
2019-02-02T04:53:20.583Z,62.60
2019-02-02T04:56:00.818Z,62.40
2019-02-02T04:58:41.449Z,62.20
2019-02-02T05:01:22.399Z,62.40
2019-02-02T05:04:03.456Z,62.10
2019-02-02T05:06:43.990Z,62.10
2019-02-02T05:12:08.027Z,62.30
2019-02-02T05:14:48.737Z,62.50
2019-02-02T05:17:29.895Z,63.10
2019-02-02T05:19:58.325Z,61.60
2019-02-02T05:22:46.110Z,62.40
2019-02-02T05:25:34.019Z,61.80
2019-02-02T05:28:21.807Z,62.30
2019-02-02T05:31:09.580Z,62.60
2019-02-02T05:33:57.365Z,62.70
2019-02-02T05:36:45.155Z,62.80
2019-02-02T05:39:32.930Z,62.80
2019-02-02T05:42:14.107Z,63.20
2019-02-02T05:44:54.620Z,62.80
2019-02-02T05:47:35.479Z,62.90
2019-02-02T05:50:15.990Z,63.70
2019-02-02T05:52:56.377Z,62.90
2019-02-02T05:55:37.323Z,62.70
2019-02-02T05:58:17.909Z,62.80
2019-02-02T06:00:58.787Z,62.60
2019-02-02T06:03:39.153Z,62.70
2019-02-02T06:06:19.754Z,62.80
2019-02-02T06:09:00.270Z,63.00
2019-02-02T06:11:40.983Z,63.70
2019-02-02T06:14:21.896Z,63.10
2019-02-02T06:17:03.257Z,62.50
2019-02-02T06:22:26.379Z,63.10
2019-02-02T06:25:06.795Z,62.30
2019-02-02T06:27:47.343Z,62.20
2019-02-02T06:30:28.041Z,63.20
2019-02-02T06:33:08.707Z,63.60
2019-02-02T06:35:49.527Z,64.50
2019-02-02T06:38:30.182Z,63.80
2019-02-02T06:41:11.072Z,64.60
2019-02-02T06:43:51.698Z,63.60
2019-02-02T06:46:43.027Z,63.70
2019-02-02T06:49:15.110Z,63.70
2019-02-02T06:51:55.665Z,64.00
2019-02-02T06:54:36.284Z,63.50
2019-02-02T06:57:17.047Z,63.80
2019-02-02T06:59:58.655Z,63.80
2019-02-02T07:02:39.757Z,62.90
2019-02-02T07:08:02.509Z,62.80
2019-02-02T07:10:42.931Z,63.10
2019-02-02T07:13:23.706Z,62.50
2019-02-02T07:16:04.251Z,63.20
2019-02-02T07:18:45.087Z,62.50
2019-02-02T07:21:26.037Z,62.40
2019-02-02T07:24:06.998Z,63.10
2019-02-02T07:26:47.574Z,63.30
2019-02-02T07:29:28.084Z,63.50
2019-02-02T07:32:08.807Z,62.90
2019-02-02T07:34:49.854Z,62.80
2019-02-02T07:37:30.477Z,63.70
2019-02-02T07:40:11.247Z,63.50
2019-02-02T07:42:51.987Z,63.80
2019-02-02T07:45:32.753Z,63.80
2019-02-02T07:48:13.567Z,63.70
2019-02-02T07:50:54.291Z,63.80
2019-02-02T07:53:35.045Z,63.90
2019-02-02T07:56:15.499Z,64.50
2019-02-02T07:58:56.026Z,63.10
2019-02-02T08:04:20.123Z,63.10
2019-02-02T08:09:43.715Z,63.60
2019-02-02T08:12:24.634Z,64.00
2019-02-02T08:15:05.392Z,63.90
2019-02-02T08:17:49.407Z,63.90
2019-02-02T08:23:12.478Z,63.70
2019-02-02T08:25:52.894Z,63.20
2019-02-02T08:28:33.881Z,63.10
2019-02-02T08:31:14.907Z,63.40
2019-02-02T08:33:55.954Z,63.50
2019-02-02T08:36:36.812Z,63.20
2019-02-02T08:39:28.733Z,63.40
2019-02-02T08:42:00.128Z,63.20
2019-02-02T08:44:41.259Z,63.40
2019-02-02T08:47:22.432Z,63.60
2019-02-02T08:50:03.391Z,63.30
2019-02-02T08:52:44.322Z,63.40
2019-02-02T08:55:25.115Z,63.30
2019-02-02T08:58:05.676Z,62.80
2019-02-02T09:00:46.188Z,63.20
2019-02-02T09:03:26.727Z,62.90
2019-02-02T09:06:07.397Z,63.10
2019-02-02T09:08:47.715Z,63.10
2019-02-02T09:11:28.267Z,63.10
2019-02-02T09:14:08.691Z,63.40
2019-02-02T09:16:49.239Z,63.40
2019-02-02T09:19:29.827Z,63.20
2019-02-02T09:22:10.636Z,63.30
2019-02-02T09:24:52.058Z,63.20
2019-02-02T09:27:33.171Z,63.50
2019-02-02T09:30:15.459Z,62.90
2019-02-02T09:32:56.202Z,62.10
2019-02-02T09:35:36.974Z,62.70
2019-02-02T09:38:17.851Z,62.20
2019-02-02T09:40:58.438Z,62.40
2019-02-02T09:43:39.738Z,62.10
2019-02-02T09:46:20.379Z,61.40
2019-02-02T09:49:00.902Z,62.80
2019-02-02T09:51:41.709Z,62.80
2019-02-02T09:54:26.487Z,63.60
2019-02-02T09:57:04.767Z,62.40
2019-02-02T09:59:45.335Z,62.50
2019-02-02T10:02:27.201Z,63.20
2019-02-02T10:05:08.124Z,62.90
2019-02-02T10:07:48.862Z,62.40
2019-02-02T10:10:29.434Z,62.10
2019-02-02T10:13:10.220Z,62.30
2019-02-02T10:15:51.081Z,63.20
2019-02-02T10:21:13.946Z,63.60
2019-02-02T10:23:54.607Z,63.20
2019-02-02T10:26:35.606Z,63.60
2019-02-02T10:29:16.479Z,63.00
2019-02-02T10:31:57.338Z,63.90
2019-02-02T10:34:38.107Z,62.90
2019-02-02T10:37:18.829Z,63.80
2019-02-02T10:39:59.379Z,63.90
2019-02-02T10:42:41.371Z,63.80
2019-02-02T10:45:21.794Z,63.70
2019-02-02T10:48:02.723Z,63.40
2019-02-02T10:50:43.266Z,63.60
2019-02-02T10:53:23.539Z,63.30
2019-02-02T10:56:04.283Z,63.20
2019-02-02T10:58:44.805Z,62.50
2019-02-02T11:01:25.615Z,62.60
2019-02-02T11:04:06.046Z,63.00
2019-02-02T11:06:47.044Z,62.40
2019-02-02T11:09:27.749Z,62.60
2019-02-02T11:12:08.555Z,61.70
2019-02-02T11:14:49.660Z,61.40
2019-02-02T11:17:30.291Z,61.50
2019-02-02T11:20:11.370Z,62.40
2019-02-02T11:22:52.094Z,62.20
2019-02-02T11:25:32.583Z,62.20
2019-02-02T11:28:13.215Z,62.40
2019-02-02T11:30:53.730Z,62.60
2019-02-02T11:33:34.187Z,62.60
2019-02-02T11:36:14.614Z,62.10
2019-02-02T11:38:55.424Z,62.40
2019-02-02T11:41:36.043Z,62.20
2019-02-02T11:46:59.916Z,62.10
2019-02-02T11:49:40.656Z,62.40
2019-02-02T11:52:23.210Z,62.50
2019-02-02T11:55:03.720Z,62.50
2019-02-02T11:57:44.436Z,62.50
2019-02-02T12:00:24.788Z,62.00
2019-02-02T12:03:05.689Z,62.60
2019-02-02T12:08:29.358Z,62.60
2019-02-02T12:11:09.865Z,62.70
2019-02-02T12:13:50.713Z,62.80
2019-02-02T12:16:31.379Z,61.80
2019-02-02T12:19:11.999Z,62.60
2019-02-02T12:21:52.236Z,62.50
2019-02-02T12:24:32.480Z,63.00
2019-02-02T12:27:12.855Z,63.10
2019-02-02T12:29:53.375Z,63.10
2019-02-02T12:35:17.415Z,63.00
2019-02-02T12:37:57.749Z,63.60
2019-02-02T12:40:38.172Z,63.40
2019-02-02T12:43:18.854Z,63.20
2019-02-02T12:45:59.654Z,63.60
2019-02-02T12:48:40.521Z,63.40
2019-02-02T12:51:21.225Z,63.00
2019-02-02T12:54:01.827Z,63.50
2019-02-02T12:59:25.255Z,64.20
2019-02-02T13:01:53.695Z,63.80
2019-02-02T13:04:41.665Z,63.90
2019-02-02T13:07:10.091Z,63.50
2019-02-02T13:09:51.067Z,64.00
2019-02-02T13:12:32.198Z,63.80
2019-02-02T13:15:13.018Z,63.90
2019-02-02T13:17:54.092Z,63.40
2019-02-02T13:20:34.663Z,62.90
2019-02-02T13:23:15.603Z,63.20
2019-02-02T13:26:05.047Z,63.00
2019-02-02T13:28:39.017Z,63.30
2019-02-02T13:31:21.039Z,63.40
2019-02-02T13:34:01.558Z,62.30
2019-02-02T13:36:42.267Z,62.10
2019-02-02T13:39:23.128Z,61.90
2019-02-02T13:42:03.850Z,61.80
2019-02-02T13:44:44.611Z,61.70
2019-02-02T13:47:25.473Z,61.30
2019-02-02T13:50:05.976Z,61.50
2019-02-02T13:52:46.642Z,61.50
2019-02-02T13:55:27.902Z,60.90
2019-02-02T13:58:08.570Z,62.10
2019-02-02T14:00:49.629Z,61.30
2019-02-02T14:03:30.559Z,61.40
2019-02-02T14:06:11.003Z,61.50
2019-02-02T14:08:51.674Z,61.30
2019-02-02T14:11:32.470Z,61.20
2019-02-02T14:14:13.214Z,61.20
2019-02-02T14:16:54.055Z,61.60
2019-02-02T14:19:35.177Z,61.60
2019-02-02T14:22:15.935Z,61.60
2019-02-02T14:24:56.768Z,61.70
2019-02-02T14:27:37.714Z,61.20
2019-02-02T14:30:18.610Z,61.50
2019-02-02T14:32:59.106Z,62.00
2019-02-02T14:35:39.886Z,63.00
2019-02-02T14:38:20.647Z,63.00
2019-02-02T14:41:01.418Z,63.20
2019-02-02T14:43:42.276Z,63.80
2019-02-02T14:46:22.838Z,63.50
2019-02-02T14:49:03.628Z,63.60
2019-02-02T14:51:44.318Z,63.80
2019-02-02T14:54:25.071Z,63.90
2019-02-02T14:57:06.015Z,64.00
2019-02-02T14:59:46.574Z,63.50
2019-02-02T15:02:27.674Z,64.20
2019-02-02T15:05:10.039Z,64.50
2019-02-02T15:07:50.775Z,64.60
2019-02-02T15:10:31.417Z,65.40
2019-02-02T15:13:12.400Z,64.80
2019-02-02T15:15:52.689Z,64.60
2019-02-02T15:18:33.264Z,64.50
2019-02-02T15:21:14.084Z,64.60
2019-02-02T15:23:55.155Z,64.60
2019-02-02T15:29:18.622Z,64.10
2019-02-02T15:31:47.043Z,64.50
2019-02-02T15:34:34.916Z,64.50
2019-02-02T15:37:22.791Z,63.80
2019-02-02T15:40:31.835Z,64.00
2019-02-02T15:43:22.207Z,64.20
2019-02-02T15:46:09.510Z,63.60
2019-02-02T15:48:57.490Z,63.90
2019-02-02T15:51:45.455Z,63.90
2019-02-02T15:54:33.260Z,62.60
2019-02-02T15:57:21.102Z,62.10
2019-02-02T16:00:29.950Z,62.50
2019-02-02T16:03:18.205Z,62.50
2019-02-02T16:06:06.068Z,62.20
2019-02-02T16:08:53.866Z,62.40
2019-02-02T16:11:34.268Z,63.70
2019-02-02T16:14:15.887Z,63.90
2019-02-02T16:16:56.435Z,63.90
2019-02-02T16:19:37.203Z,63.90
2019-02-02T16:25:00.967Z,64.00
2019-02-02T16:27:41.483Z,63.70
2019-02-02T16:30:21.996Z,64.40
2019-02-02T16:33:02.818Z,63.90
2019-02-02T16:35:43.446Z,64.00
2019-02-02T16:38:24.246Z,64.10
2019-02-02T16:41:04.999Z,62.90
2019-02-02T16:43:45.919Z,63.60
2019-02-02T16:46:26.957Z,64.00
2019-02-02T16:49:07.480Z,63.80
2019-02-02T16:51:48.780Z,63.00
2019-02-02T16:54:29.363Z,62.70
2019-02-02T16:57:10.359Z,63.40
2019-02-02T16:59:51.138Z,64.00
2019-02-02T17:02:31.593Z,62.90
2019-02-02T17:05:12.053Z,62.50
2019-02-02T17:07:53.039Z,62.40
2019-02-02T17:10:33.847Z,62.70
2019-02-02T17:13:14.267Z,62.50
2019-02-02T17:15:54.840Z,62.60
2019-02-02T17:18:35.339Z,62.80
2019-02-02T17:21:16.038Z,62.50
2019-02-02T17:23:56.614Z,62.70
2019-02-02T17:26:37.315Z,62.80
2019-02-02T17:29:17.702Z,62.90
2019-02-02T17:31:58.363Z,62.40
2019-02-02T17:34:39.332Z,62.70
2019-02-02T17:37:20.135Z,62.30
2019-02-02T17:40:00.991Z,62.60
2019-02-02T17:42:43.450Z,62.80
2019-02-02T17:45:24.560Z,62.90
2019-02-02T17:50:47.995Z,62.60
2019-02-02T17:53:28.610Z,63.30
2019-02-02T17:56:09.191Z,62.80
2019-02-02T17:58:49.958Z,62.20
2019-02-02T18:01:30.359Z,63.00
2019-02-02T18:04:10.800Z,62.30
2019-02-02T18:06:51.752Z,63.00
2019-02-02T18:09:32.223Z,62.70
2019-02-02T18:12:13.462Z,62.90
2019-02-02T18:17:37.262Z,62.70
2019-02-02T18:20:18.102Z,62.70
2019-02-02T18:25:40.814Z,62.70
2019-02-02T18:28:21.504Z,63.90
2019-02-02T18:31:02.320Z,62.70
2019-02-02T18:33:42.968Z,63.80
2019-02-02T18:36:23.936Z,64.10
2019-02-02T18:39:04.728Z,62.80
2019-02-02T18:41:45.643Z,62.70
2019-02-02T18:44:26.743Z,62.90
2019-02-02T18:47:07.340Z,62.50
2019-02-02T18:49:47.991Z,63.80
2019-02-02T18:52:28.694Z,62.60
2019-02-02T18:55:08.875Z,63.20
2019-02-02T18:57:49.803Z,63.60
2019-02-02T19:00:30.752Z,63.30
2019-02-02T19:03:11.039Z,63.50
2019-02-02T19:05:51.987Z,63.40
2019-02-02T19:08:32.470Z,63.30
2019-02-02T19:11:13.563Z,63.10
2019-02-02T19:13:54.785Z,63.90
2019-02-02T19:16:35.345Z,63.60
2019-02-02T19:21:58.989Z,63.40
2019-02-02T19:24:39.542Z,64.00
2019-02-02T19:27:20.264Z,63.60
2019-02-02T19:30:00.678Z,63.40
2019-02-02T19:32:41.674Z,63.10
2019-02-02T19:35:23.097Z,63.40
2019-02-02T19:40:47.148Z,63.00
2019-02-02T19:43:27.847Z,62.90
2019-02-02T19:46:09.427Z,63.40
2019-02-02T19:48:38.080Z,63.00
2019-02-02T19:51:25.962Z,63.50
2019-02-02T19:54:14.205Z,63.10
2019-02-02T19:57:02.143Z,63.40
2019-02-02T19:59:50.019Z,63.60
2019-02-02T20:02:37.931Z,63.00
2019-02-02T20:05:28.851Z,63.10
2019-02-02T20:08:15.308Z,63.00
2019-02-02T20:10:56.324Z,63.00
2019-02-02T20:13:37.095Z,63.40
2019-02-02T20:16:17.924Z,63.30
2019-02-02T20:18:58.847Z,63.30
2019-02-02T20:21:39.535Z,63.30
2019-02-02T20:24:20.545Z,63.00
2019-02-02T20:29:43.583Z,63.20
2019-02-02T20:32:24.298Z,63.20
2019-02-02T20:35:05.118Z,63.30
2019-02-02T20:37:45.872Z,63.20
2019-02-02T20:40:27.041Z,62.90
2019-02-02T20:43:08.142Z,63.00
2019-02-02T20:45:49.438Z,63.20
2019-02-02T20:48:30.392Z,63.10
2019-02-02T20:51:11.271Z,63.10
2019-02-02T20:53:51.765Z,63.00
2019-02-02T20:56:32.542Z,63.50
2019-02-02T20:59:14.603Z,62.90
2019-02-02T21:01:55.437Z,62.80
2019-02-02T21:04:36.667Z,62.90
2019-02-02T21:07:17.511Z,62.80
2019-02-02T21:09:58.458Z,62.90
2019-02-02T21:12:38.983Z,62.70
2019-02-02T21:15:20.118Z,62.60
2019-02-02T21:18:00.584Z,62.70
2019-02-02T21:20:41.432Z,62.40
2019-02-02T21:23:22.585Z,62.50
2019-02-02T21:26:04.092Z,62.80
2019-02-02T21:28:50.423Z,62.70
2019-02-02T21:31:27.438Z,62.50
2019-02-02T21:34:08.214Z,62.60
2019-02-02T21:36:48.962Z,62.50
2019-02-02T21:39:29.452Z,62.00
2019-02-02T21:42:10.207Z,61.60
2019-02-02T21:44:51.053Z,61.50
2019-02-02T21:47:31.457Z,60.60
2019-02-02T21:50:12.315Z,61.70
2019-02-02T21:52:52.853Z,62.10
2019-02-02T21:55:33.403Z,62.10
2019-02-02T21:58:14.279Z,62.30
2019-02-02T22:00:55.331Z,62.60
2019-02-02T22:03:36.243Z,62.40
2019-02-02T22:06:18.151Z,62.60
2019-02-02T22:08:46.572Z,62.60
2019-02-02T22:11:27.203Z,62.70
2019-02-02T22:14:07.993Z,62.60
2019-02-02T22:16:36.458Z,62.40
2019-02-02T22:19:24.581Z,62.50
2019-02-02T22:22:12.905Z,62.40
2019-02-02T22:25:00.688Z,62.40
2019-02-02T22:27:48.528Z,62.60
2019-02-02T22:30:37.082Z,62.10
2019-02-02T22:33:25.009Z,61.80
2019-02-02T22:36:12.804Z,61.80
2019-02-02T22:39:00.650Z,61.80
2019-02-02T22:41:48.443Z,61.80
2019-02-02T22:44:36.207Z,61.20
2019-02-02T22:47:25.715Z,61.90
2019-02-02T22:50:34.228Z,62.30
2019-02-02T22:53:22.068Z,62.00
2019-02-02T22:56:09.848Z,62.60
2019-02-02T22:58:57.692Z,61.80
2019-02-02T23:01:45.647Z,61.60
2019-02-02T23:04:54.150Z,61.80
2019-02-02T23:07:43.703Z,62.30
2019-02-02T23:10:24.064Z,62.30
2019-02-02T23:13:32.583Z,62.20
2019-02-02T23:16:39.791Z,62.50
2019-02-02T23:19:27.562Z,63.10
2019-02-02T23:22:15.420Z,63.30
2019-02-02T23:25:24.011Z,63.30
2019-02-02T23:28:11.881Z,63.20
2019-02-02T23:30:59.686Z,63.60
2019-02-02T23:33:47.595Z,63.40
2019-02-02T23:36:35.447Z,63.50
2019-02-02T23:39:23.210Z,63.60
2019-02-02T23:42:11.076Z,63.00
2019-02-02T23:44:58.841Z,63.50
2019-02-02T23:47:46.674Z,63.70
2019-02-02T23:50:34.434Z,63.30
2019-02-02T23:53:22.492Z,63.40
2019-02-02T23:56:10.328Z,63.40
2019-02-02T23:58:58.118Z,63.60
